createdAt,value
2023-01-09T00:00:21.778Z,5.67
2023-01-09T00:02:48.373Z,5.61
2023-01-09T00:05:17.016Z,5.53
2023-01-09T00:07:43.456Z,5.49
2023-01-09T00:10:11.319Z,5.51
2023-01-09T00:12:38.430Z,5.53
2023-01-09T00:15:06.287Z,5.57
2023-01-09T00:17:32.719Z,5.58
2023-01-09T00:19:59.174Z,5.52
2023-01-09T00:22:25.593Z,5.35
2023-01-09T00:24:51.997Z,5.33
2023-01-09T00:27:18.431Z,5.42
2023-01-09T00:29:46.114Z,5.40
2023-01-09T00:32:12.560Z,5.42
2023-01-09T00:34:39.418Z,5.34
2023-01-09T00:37:11.665Z,5.30
2023-01-09T00:39:39.568Z,5.39
2023-01-09T00:42:08.088Z,5.41
2023-01-09T00:44:42.510Z,5.46
2023-01-09T00:47:14.601Z,5.45
2023-01-09T00:49:42.535Z,5.46
2023-01-09T00:52:11.721Z,5.53
2023-01-09T00:54:39.350Z,5.55
2023-01-09T00:57:06.631Z,5.56
2023-01-09T00:59:33.162Z,5.55
2023-01-09T01:01:59.969Z,5.62
2023-01-09T01:04:44.925Z,5.67
2023-01-09T01:07:29.859Z,5.68
2023-01-09T01:09:56.323Z,5.68
2023-01-09T01:12:22.787Z,5.71
2023-01-09T01:14:49.250Z,5.70
2023-01-09T01:17:15.725Z,5.67
2023-01-09T01:19:42.142Z,5.65
2023-01-09T01:22:08.591Z,5.60
2023-01-09T01:24:35.245Z,5.62
2023-01-09T01:27:01.826Z,5.68
2023-01-09T01:29:28.730Z,5.65
2023-01-09T01:31:55.269Z,5.53
2023-01-09T01:34:21.801Z,5.63
2023-01-09T01:36:48.308Z,5.57
2023-01-09T01:39:14.813Z,5.62
2023-01-09T01:41:41.222Z,5.50
2023-01-09T01:44:46.259Z,5.53
2023-01-09T01:47:14.418Z,5.55
2023-01-09T01:49:40.937Z,5.47
2023-01-09T01:52:07.580Z,5.41
2023-01-09T01:54:34.120Z,5.33
2023-01-09T01:57:03.492Z,5.19
2023-01-09T01:59:50.272Z,5.20
2023-01-09T02:02:22.260Z,5.09
2023-01-09T02:04:52.156Z,5.10
2023-01-09T02:07:18.556Z,5.04
2023-01-09T02:09:45.182Z,5.06
2023-01-09T02:12:25.661Z,5.20
2023-01-09T02:15:06.806Z,5.14
2023-01-09T02:17:54.358Z,5.12
2023-01-09T02:20:41.268Z,5.10
2023-01-09T02:23:25.741Z,5.16
2023-01-09T02:26:19.555Z,5.00
2023-01-09T02:29:40.085Z,5.11
2023-01-09T02:32:30.797Z,5.16
2023-01-09T02:35:09.554Z,5.15
2023-01-09T02:37:54.515Z,5.12
2023-01-09T02:40:33.695Z,5.12
2023-01-09T02:43:01.167Z,5.24
2023-01-09T02:45:27.767Z,5.24
2023-01-09T02:47:54.292Z,5.18
2023-01-09T02:50:31.243Z,5.20
2023-01-09T02:53:17.224Z,5.13
2023-01-09T02:55:58.746Z,5.03
2023-01-09T02:58:35.806Z,5.08
2023-01-09T03:01:20.689Z,5.11
2023-01-09T03:03:57.646Z,5.08
2023-01-09T03:06:44.482Z,5.11
2023-01-09T03:09:20.279Z,5.17
2023-01-09T03:11:52.905Z,5.12
2023-01-09T03:14:23.953Z,4.94
2023-01-09T03:16:56.831Z,4.93
2023-01-09T03:19:27.908Z,5.00
2023-01-09T03:21:56.471Z,4.98
2023-01-09T03:24:22.895Z,4.94
2023-01-09T03:26:49.941Z,4.94
2023-01-09T03:29:16.353Z,4.87
2023-01-09T03:31:42.805Z,4.81
2023-01-09T03:34:09.229Z,4.75
2023-01-09T03:36:35.628Z,4.82
2023-01-09T03:39:02.048Z,4.90
2023-01-09T03:41:28.464Z,4.89
2023-01-09T03:43:54.897Z,4.73
2023-01-09T03:46:21.476Z,4.66
2023-01-09T03:48:48.385Z,4.65
2023-01-09T03:51:14.863Z,4.65
2023-01-09T03:53:41.322Z,4.57
2023-01-09T03:56:08.036Z,4.51
2023-01-09T03:58:34.465Z,4.45
2023-01-09T04:01:03.660Z,4.38
2023-01-09T04:03:30.313Z,4.24
2023-01-09T04:05:56.899Z,4.31
2023-01-09T04:08:23.332Z,4.34
2023-01-09T04:10:51.403Z,4.10
2023-01-09T04:13:18.274Z,4.09
2023-01-09T04:15:44.689Z,3.91
2023-01-09T04:18:11.271Z,3.91
2023-01-09T04:20:37.770Z,3.89
2023-01-09T04:23:04.270Z,3.82
2023-01-09T04:25:30.885Z,3.83
2023-01-09T04:27:57.335Z,3.95
2023-01-09T04:30:23.768Z,3.86
2023-01-09T04:32:51.882Z,3.76
2023-01-09T04:35:19.328Z,3.67
2023-01-09T04:37:45.781Z,3.69
2023-01-09T04:40:12.681Z,3.73
2023-01-09T04:42:40.101Z,3.55
2023-01-09T04:45:08.803Z,3.36
2023-01-09T04:47:35.313Z,3.32
2023-01-09T04:50:01.912Z,3.35
2023-01-09T04:52:28.718Z,3.30
2023-01-09T04:54:55.215Z,3.21
2023-01-09T04:57:21.991Z,3.17
2023-01-09T04:59:48.881Z,3.26
2023-01-09T05:02:15.445Z,3.23
2023-01-09T05:04:42.097Z,3.18
2023-01-09T05:07:08.543Z,3.24
2023-01-09T05:09:36.061Z,3.26
2023-01-09T05:12:02.669Z,3.23
2023-01-09T05:14:29.125Z,3.32
2023-01-09T05:16:55.550Z,3.48
2023-01-09T05:19:22.536Z,3.47
2023-01-09T05:21:49.227Z,3.47
2023-01-09T05:24:15.717Z,3.37
2023-01-09T05:26:42.177Z,3.28
2023-01-09T05:29:10.077Z,3.09
2023-01-09T05:31:36.588Z,3.10
2023-01-09T05:34:03.076Z,3.04
2023-01-09T05:36:29.724Z,3.03
2023-01-09T05:38:57.863Z,3.05
2023-01-09T05:41:25.509Z,3.05
2023-01-09T05:43:52.046Z,3.05
2023-01-09T05:46:18.583Z,3.01
2023-01-09T05:48:45.120Z,2.92
2023-01-09T05:51:12.412Z,2.95
2023-01-09T05:53:38.897Z,3.03
2023-01-09T05:56:05.548Z,3.01
2023-01-09T05:58:32.001Z,2.94
2023-01-09T06:00:59.008Z,3.01
2023-01-09T06:03:25.481Z,2.91
2023-01-09T06:05:51.891Z,2.88
2023-01-09T06:08:18.367Z,2.81
2023-01-09T06:10:46.063Z,2.82
2023-01-09T06:13:12.603Z,2.80
2023-01-09T06:15:39.301Z,2.78
2023-01-09T06:18:05.876Z,2.77
2023-01-09T06:20:32.427Z,2.73
2023-01-09T06:22:58.856Z,2.78
2023-01-09T06:25:25.328Z,2.63
2023-01-09T06:27:52.171Z,2.59
2023-01-09T06:30:19.664Z,2.64
2023-01-09T06:32:49.203Z,2.69
2023-01-09T06:35:20.304Z,2.76
2023-01-09T06:37:50.083Z,2.79
2023-01-09T06:40:17.739Z,2.74
2023-01-09T06:42:48.396Z,2.78
2023-01-09T06:45:16.215Z,2.63
2023-01-09T06:47:42.654Z,2.66
2023-01-09T06:50:09.978Z,2.66
2023-01-09T06:52:37.546Z,2.64
2023-01-09T06:55:04.350Z,2.61
2023-01-09T06:57:30.801Z,2.62
2023-01-09T06:59:57.814Z,2.63
2023-01-09T07:02:24.704Z,2.60
2023-01-09T07:04:51.195Z,2.62
2023-01-09T07:07:19.371Z,2.52
2023-01-09T07:09:45.796Z,2.46
2023-01-09T07:12:12.849Z,2.49
2023-01-09T07:14:39.339Z,2.43
2023-01-09T07:17:05.843Z,2.53
2023-01-09T07:19:32.545Z,2.56
2023-01-09T07:21:59.034Z,2.59
2023-01-09T07:24:25.472Z,2.56
2023-01-09T07:26:51.889Z,2.63
2023-01-09T07:29:18.353Z,2.71
2023-01-09T07:31:44.777Z,2.82
2023-01-09T07:34:11.207Z,2.94
2023-01-09T07:36:37.658Z,2.94
2023-01-09T07:39:04.182Z,2.96
2023-01-09T07:41:30.789Z,2.90
2023-01-09T07:43:57.720Z,2.96
2023-01-09T07:46:24.290Z,3.02
2023-01-09T07:48:50.818Z,3.00
2023-01-09T07:51:17.241Z,3.04
2023-01-09T07:53:43.719Z,3.08
2023-01-09T07:56:10.214Z,3.15
2023-01-09T07:58:36.823Z,3.07
2023-01-09T08:01:03.266Z,3.16
2023-01-09T08:03:29.847Z,3.23
2023-01-09T08:05:56.310Z,3.28
2023-01-09T08:08:23.438Z,3.21
2023-01-09T08:10:49.965Z,3.17
2023-01-09T08:13:16.775Z,3.19
2023-01-09T08:15:43.273Z,3.23
2023-01-09T08:18:09.725Z,3.32
2023-01-09T08:20:36.107Z,3.19
2023-01-09T08:23:02.644Z,3.37
2023-01-09T08:25:29.540Z,3.49
2023-01-09T08:27:55.956Z,3.43
2023-01-09T08:30:22.450Z,3.48
2023-01-09T08:32:51.448Z,3.49
2023-01-09T08:35:18.395Z,3.49
2023-01-09T08:37:45.898Z,3.59
2023-01-09T08:40:13.883Z,3.65
2023-01-09T08:42:58.939Z,3.75
2023-01-09T08:45:44.297Z,3.69
2023-01-09T08:48:11.090Z,3.62
2023-01-09T08:50:37.773Z,3.63
2023-01-09T08:53:04.267Z,3.74
2023-01-09T08:55:30.667Z,3.70
2023-01-09T08:57:57.220Z,3.70
2023-01-09T09:00:24.517Z,3.75
2023-01-09T09:02:56.325Z,3.73
2023-01-09T09:05:24.632Z,3.86
2023-01-09T09:07:54.687Z,3.98
2023-01-09T09:10:28.434Z,3.86
2023-01-09T09:12:57.776Z,4.00
2023-01-09T09:15:26.450Z,4.14
2023-01-09T09:17:58.599Z,4.03
2023-01-09T09:20:27.965Z,4.00
2023-01-09T09:22:54.660Z,4.04
2023-01-09T09:25:21.666Z,4.10
2023-01-09T09:27:49.057Z,4.33
2023-01-09T09:30:17.830Z,4.47
2023-01-09T09:32:44.624Z,4.22
2023-01-09T09:35:11.457Z,4.32
2023-01-09T09:37:38.211Z,4.28
2023-01-09T09:40:17.926Z,4.41
2023-01-09T09:43:35.874Z,4.54
2023-01-09T09:46:32.941Z,4.41
2023-01-09T09:49:12.053Z,4.20
2023-01-09T09:51:54.396Z,4.21
2023-01-09T09:54:30.307Z,4.23
2023-01-09T09:56:59.620Z,4.16
2023-01-09T09:59:32.241Z,4.38
2023-01-09T10:02:11.906Z,4.46
2023-01-09T10:04:45.181Z,4.48
2023-01-09T10:07:21.883Z,4.48
2023-01-09T10:09:49.891Z,4.32
2023-01-09T10:12:31.562Z,4.43
2023-01-09T10:15:16.606Z,4.47
2023-01-09T10:18:05.856Z,4.48
2023-01-09T10:20:54.263Z,4.51
2023-01-09T10:23:32.627Z,4.13
2023-01-09T10:26:11.453Z,4.09
2023-01-09T10:29:04.674Z,4.08
2023-01-09T10:31:52.767Z,4.11
2023-01-09T10:34:30.660Z,4.12
2023-01-09T10:37:05.668Z,4.05
2023-01-09T10:39:41.860Z,4.00
2023-01-09T10:42:18.832Z,3.97
2023-01-09T10:44:57.958Z,3.88
2023-01-09T10:47:29.789Z,4.20
2023-01-09T10:49:57.206Z,4.10
2023-01-09T10:52:35.228Z,4.13
2023-01-09T10:55:17.131Z,4.35
2023-01-09T10:57:46.795Z,4.48
2023-01-09T11:00:21.036Z,4.49
2023-01-09T11:02:48.982Z,4.32
2023-01-09T11:05:20.612Z,4.44
2023-01-09T11:08:01.072Z,4.62
2023-01-09T11:10:47.997Z,4.54
2023-01-09T11:13:18.635Z,4.39
2023-01-09T11:15:45.242Z,4.37
2023-01-09T11:18:21.351Z,4.47
2023-01-09T11:20:47.848Z,4.43
2023-01-09T11:23:26.817Z,4.55
2023-01-09T11:25:55.177Z,4.56
2023-01-09T11:28:21.687Z,4.42
2023-01-09T11:31:01.998Z,4.49
2023-01-09T11:33:42.867Z,4.43
2023-01-09T11:36:14.850Z,4.42
2023-01-09T11:38:51.174Z,4.39
2023-01-09T11:41:22.172Z,4.38
2023-01-09T11:43:51.892Z,4.32
2023-01-09T11:46:38.356Z,4.45
2023-01-09T11:49:17.846Z,4.34
2023-01-09T11:51:44.332Z,4.12
2023-01-09T11:54:15.417Z,4.21
2023-01-09T11:56:42.551Z,4.20
2023-01-09T11:59:14.666Z,4.46
2023-01-09T12:02:28.215Z,4.40
2023-01-09T12:05:03.561Z,4.41
2023-01-09T12:07:54.686Z,4.46
2023-01-09T12:10:47.291Z,4.13
2023-01-09T12:13:30.014Z,4.11
2023-01-09T12:16:05.851Z,3.98
2023-01-09T12:18:52.613Z,3.79
2023-01-09T12:21:30.705Z,3.68
2023-01-09T12:24:08.676Z,3.75
2023-01-09T12:26:47.229Z,3.87
2023-01-09T12:29:46.087Z,4.08
2023-01-09T12:32:15.560Z,3.93
2023-01-09T12:34:56.537Z,3.92
2023-01-09T12:37:41.312Z,3.79
2023-01-09T12:40:41.068Z,3.79
2023-01-09T12:43:39.604Z,4.10
2023-01-09T12:46:18.045Z,4.40
2023-01-09T12:48:59.587Z,4.25
2023-01-09T12:51:37.800Z,4.22
2023-01-09T12:54:20.799Z,4.32
2023-01-09T12:56:57.140Z,4.09
2023-01-09T12:59:32.898Z,4.13
2023-01-09T13:02:16.196Z,4.02
2023-01-09T13:04:55.367Z,3.85
2023-01-09T13:07:27.002Z,3.96
2023-01-09T13:10:00.050Z,4.05
2023-01-09T13:12:30.900Z,4.18
2023-01-09T13:15:35.041Z,3.77
2023-01-09T13:18:12.527Z,4.10
2023-01-09T13:20:47.262Z,4.24
2023-01-09T13:23:24.484Z,4.24
2023-01-09T13:25:58.110Z,4.35
2023-01-09T13:28:31.339Z,4.49
2023-01-09T13:31:13.081Z,4.34
2023-01-09T13:33:44.733Z,4.13
2023-01-09T13:36:28.654Z,4.08
2023-01-09T13:38:57.818Z,4.27
2023-01-09T13:41:45.720Z,4.23
2023-01-09T13:44:18.311Z,4.52
2023-01-09T13:46:51.146Z,4.55
2023-01-09T13:49:36.469Z,4.47
2023-01-09T13:52:26.794Z,4.42
2023-01-09T13:54:53.450Z,4.30
2023-01-09T13:57:19.803Z,4.28
2023-01-09T13:59:49.700Z,4.25
2023-01-09T14:02:34.695Z,4.28
2023-01-09T14:05:09.534Z,4.33
2023-01-09T14:07:38.334Z,4.42
2023-01-09T14:10:20.882Z,4.39
2023-01-09T14:12:47.742Z,4.31
2023-01-09T14:15:29.947Z,4.11
2023-01-09T14:18:02.377Z,4.10
2023-01-09T14:20:41.708Z,3.93
2023-01-09T14:23:45.663Z,3.56
2023-01-09T14:25:55.478Z,3.56
2023-01-09T14:28:26.186Z,3.60
2023-01-09T14:30:52.573Z,3.68
2023-01-09T14:33:18.985Z,3.84
2023-01-09T14:35:54.846Z,3.98
2023-01-09T14:38:50.393Z,3.93
2023-01-09T14:41:44.189Z,4.26
2023-01-09T14:44:27.583Z,4.97
2023-01-09T14:46:58.594Z,5.03
2023-01-09T14:49:37.259Z,4.82
2023-01-09T14:52:27.421Z,4.22
2023-01-09T14:54:59.035Z,3.85
2023-01-09T14:57:31.866Z,3.75
2023-01-09T15:00:04.698Z,3.66
2023-01-09T15:02:34.107Z,3.37
2023-01-09T15:05:10.632Z,3.37
2023-01-09T15:07:46.334Z,3.32
2023-01-09T15:10:20.142Z,3.19
2023-01-09T15:12:49.768Z,3.12
2023-01-09T15:15:18.434Z,3.08
2023-01-09T15:17:58.244Z,3.09
2023-01-09T15:20:29.065Z,3.04
2023-01-09T15:22:56.869Z,2.85
2023-01-09T15:25:34.166Z,2.83
2023-01-09T15:28:32.173Z,2.87
2023-01-09T15:31:10.755Z,2.83
2023-01-09T15:33:40.493Z,2.85
2023-01-09T15:36:28.320Z,2.85
2023-01-09T15:38:55.107Z,2.78
2023-01-09T15:41:45.670Z,2.64
2023-01-09T15:44:16.210Z,2.49
2023-01-09T15:46:46.199Z,2.48
2023-01-09T15:49:13.782Z,2.49
2023-01-09T15:51:43.681Z,2.43
2023-01-09T15:54:15.624Z,2.25
2023-01-09T15:56:44.515Z,2.18
2023-01-09T15:59:24.624Z,2.17
2023-01-09T16:02:18.152Z,2.11
2023-01-09T16:04:44.740Z,2.02
2023-01-09T16:07:15.334Z,2.11
2023-01-09T16:09:45.190Z,2.05
2023-01-09T16:12:20.090Z,1.99
2023-01-09T16:14:52.452Z,2.07
2023-01-09T16:17:23.925Z,2.01
2023-01-09T16:19:58.750Z,2.02
2023-01-09T16:22:30.724Z,1.93
2023-01-09T16:25:01.945Z,2.02
2023-01-09T16:27:32.045Z,1.92
2023-01-09T16:30:04.882Z,1.84
2023-01-09T16:32:33.718Z,1.83
2023-01-09T16:35:05.996Z,1.79
2023-01-09T16:37:33.353Z,1.78
2023-01-09T16:40:06.416Z,1.86
2023-01-09T16:42:51.711Z,1.85
2023-01-09T16:45:18.292Z,1.78
2023-01-09T16:47:45.967Z,1.71
2023-01-09T16:50:13.605Z,1.64
2023-01-09T16:52:40.049Z,1.67
2023-01-09T16:55:06.790Z,1.71
2023-01-09T16:57:34.779Z,1.73
2023-01-09T17:00:01.705Z,1.74
2023-01-09T17:02:28.176Z,1.73
2023-01-09T17:04:55.913Z,1.70
2023-01-09T17:07:27.792Z,1.69
2023-01-09T17:09:54.585Z,1.64
2023-01-09T17:12:22.344Z,1.64
2023-01-09T17:14:49.761Z,1.63
2023-01-09T17:17:17.720Z,1.69
2023-01-09T17:19:46.560Z,1.73
2023-01-09T17:22:14.238Z,1.79
2023-01-09T17:24:59.983Z,1.68
2023-01-09T17:27:48.946Z,1.57
2023-01-09T17:30:19.688Z,1.48
2023-01-09T17:32:47.204Z,1.60
2023-01-09T17:35:15.276Z,1.65
2023-01-09T17:37:42.055Z,1.68
2023-01-09T17:40:28.305Z,1.64
2023-01-09T17:42:54.759Z,1.73
2023-01-09T17:45:21.443Z,1.83
2023-01-09T17:47:47.911Z,1.85
2023-01-09T17:50:19.971Z,1.80
2023-01-09T17:52:47.555Z,1.77
2023-01-09T17:55:14.024Z,1.83
2023-01-09T17:57:42.849Z,1.91
2023-01-09T18:00:24.787Z,1.95
2023-01-09T18:02:52.335Z,1.92
2023-01-09T18:05:19.032Z,1.95
2023-01-09T18:07:45.562Z,2.04
2023-01-09T18:10:16.854Z,1.97
2023-01-09T18:12:43.373Z,2.00
2023-01-09T18:15:10.121Z,2.07
2023-01-09T18:17:36.566Z,2.03
2023-01-09T18:20:04.932Z,2.03
2023-01-09T18:22:33.446Z,1.99
2023-01-09T18:25:00.342Z,2.04
2023-01-09T18:27:26.934Z,1.95
2023-01-09T18:29:53.357Z,1.96
2023-01-09T18:32:19.762Z,1.96
2023-01-09T18:34:46.206Z,1.90
2023-01-09T18:37:12.680Z,1.90
2023-01-09T18:39:39.140Z,1.83
2023-01-09T18:42:05.643Z,1.84
2023-01-09T18:44:32.061Z,1.84
2023-01-09T18:46:58.796Z,1.87
2023-01-09T18:49:25.334Z,1.99
2023-01-09T18:51:51.858Z,1.97
2023-01-09T18:54:18.351Z,1.98
2023-01-09T18:56:44.847Z,1.95
2023-01-09T18:59:12.219Z,1.87
2023-01-09T19:01:38.910Z,1.87
2023-01-09T19:04:05.610Z,1.91
2023-01-09T19:06:32.092Z,1.95
2023-01-09T19:08:59.348Z,2.03
2023-01-09T19:11:25.897Z,2.10
2023-01-09T19:13:52.361Z,1.98
2023-01-09T19:16:19.195Z,2.01
2023-01-09T19:18:45.955Z,2.03
2023-01-09T19:21:16.139Z,2.05
2023-01-09T19:23:44.326Z,2.10
2023-01-09T19:26:25.910Z,2.17
2023-01-09T19:28:55.355Z,2.15
2023-01-09T19:31:24.233Z,2.07
2023-01-09T19:33:53.074Z,2.07
2023-01-09T19:36:20.322Z,2.06
2023-01-09T19:38:47.177Z,2.06
2023-01-09T19:41:19.386Z,2.16
2023-01-09T19:43:46.974Z,2.12
2023-01-09T19:46:19.598Z,2.11
2023-01-09T19:48:46.727Z,2.22
2023-01-09T19:51:15.396Z,2.19
2023-01-09T19:53:42.502Z,2.16
2023-01-09T19:56:17.463Z,2.20
2023-01-09T19:58:53.140Z,2.24
2023-01-09T20:01:26.041Z,2.16
2023-01-09T20:03:53.574Z,2.14
2023-01-09T20:06:24.640Z,2.18
2023-01-09T20:08:54.303Z,2.14
2023-01-09T20:11:21.799Z,2.05
2023-01-09T20:13:48.236Z,2.01
2023-01-09T20:16:18.256Z,2.04
2023-01-09T20:18:44.729Z,2.17
2023-01-09T20:21:11.862Z,2.30
2023-01-09T20:23:38.253Z,2.25
2023-01-09T20:26:04.932Z,2.35
2023-01-09T20:28:31.456Z,2.46
2023-01-09T20:30:58.015Z,2.49
2023-01-09T20:33:24.606Z,2.55
2023-01-09T20:35:51.067Z,2.58
2023-01-09T20:38:17.662Z,2.61
2023-01-09T20:40:44.197Z,2.55
2023-01-09T20:43:12.426Z,2.50
2023-01-09T20:45:39.835Z,2.47
2023-01-09T20:48:06.775Z,2.52
2023-01-09T20:50:33.215Z,2.50
2023-01-09T20:52:59.635Z,2.51
2023-01-09T20:55:26.081Z,2.53
2023-01-09T20:57:52.553Z,2.58
2023-01-09T21:00:19.085Z,2.61
2023-01-09T21:02:45.533Z,2.60
2023-01-09T21:05:11.991Z,2.58
2023-01-09T21:07:38.446Z,2.57
2023-01-09T21:10:05.454Z,2.65
2023-01-09T21:12:34.850Z,2.67
2023-01-09T21:15:04.616Z,2.55
2023-01-09T21:17:36.691Z,2.47
2023-01-09T21:20:05.650Z,2.45
2023-01-09T21:22:33.535Z,2.43
2023-01-09T21:25:00.549Z,2.46
2023-01-09T21:27:47.673Z,2.48
2023-01-09T21:30:14.422Z,2.58
2023-01-09T21:32:41.174Z,2.55
2023-01-09T21:35:08.184Z,2.58
2023-01-09T21:37:36.928Z,2.59
2023-01-09T21:40:05.680Z,2.59
2023-01-09T21:42:50.819Z,2.62
2023-01-09T21:45:36.579Z,2.55
2023-01-09T21:48:05.706Z,2.50
2023-01-09T21:50:36.583Z,2.46
2023-01-09T21:53:03.929Z,2.43
2023-01-09T21:55:32.180Z,2.35
2023-01-09T21:58:01.236Z,2.35
2023-01-09T22:00:28.497Z,2.38
2023-01-09T22:02:55.441Z,2.43
2023-01-09T22:05:24.523Z,2.34
2023-01-09T22:07:51.728Z,2.20
2023-01-09T22:10:18.817Z,2.15
2023-01-09T22:13:05.490Z,2.14
2023-01-09T22:15:32.554Z,2.17
2023-01-09T22:17:59.292Z,2.03
2023-01-09T22:20:26.020Z,1.96
2023-01-09T22:22:52.540Z,2.05
2023-01-09T22:25:19.834Z,1.98
2023-01-09T22:27:47.965Z,1.87
2023-01-09T22:30:14.710Z,1.88
2023-01-09T22:32:41.601Z,1.89
2023-01-09T22:35:08.817Z,1.90
2023-01-09T22:37:35.577Z,1.91
2023-01-09T22:40:02.201Z,1.89
2023-01-09T22:42:28.731Z,1.81
2023-01-09T22:44:55.529Z,1.71
2023-01-09T22:47:22.014Z,1.62
2023-01-09T22:49:53.266Z,1.62
2023-01-09T22:52:20.906Z,1.57
2023-01-09T22:54:48.279Z,1.63
2023-01-09T22:57:14.816Z,1.62
2023-01-09T22:59:41.334Z,1.62
2023-01-09T23:02:08.116Z,1.67
2023-01-09T23:04:34.915Z,1.66
2023-01-09T23:07:01.553Z,1.75
2023-01-09T23:09:28.133Z,1.70
2023-01-09T23:12:03.422Z,1.79
2023-01-09T23:14:32.548Z,1.89
2023-01-09T23:16:59.115Z,1.84
2023-01-09T23:19:25.842Z,1.85
2023-01-09T23:21:52.385Z,1.93
2023-01-09T23:24:19.011Z,1.95
2023-01-09T23:26:46.378Z,1.97
2023-01-09T23:29:12.986Z,1.89
2023-01-09T23:31:39.514Z,1.86
2023-01-09T23:34:08.056Z,1.86
2023-01-09T23:36:35.065Z,1.87
2023-01-09T23:39:02.695Z,1.92
2023-01-09T23:41:47.893Z,1.94
2023-01-09T23:44:14.321Z,2.03
2023-01-09T23:46:40.773Z,2.02
2023-01-09T23:49:07.283Z,1.92
2023-01-09T23:51:33.711Z,1.79
2023-01-09T23:54:00.133Z,1.76
2023-01-09T23:56:26.594Z,1.78
2023-01-09T23:58:52.991Z,1.80
